TNCA Airport Information

Runway Information
Runway 11 Length 9000 ft width 148 ft
Elevation 12 ft Threshold 0 ft Heading 104
Runway 29 Length 9000 ft Width 148 ft
Elevation 62 ft Threshold 0 ft Heading 284
Airport Frequencies
Type ATIS Name ATIS Frequency 132.1 MHZ
Type GND Name GND Frequency 121.9 MHZ
Type MISC Name SEARCH AND Frequency 123.1 MHZ
Type RMP Name BEATRIX AP Frequency 121.6 MHZ
Type TWR Name BEATRIX TW Frequency 120.9 MHZ
Airport Navaids
Type VOR-DME Name Aruba Frequency 112500 KHZ
Type VOR-DME Name Reina Beatrix Frequency 113800 KHZ
Airport Weather Information & NOTAM
TNCA 280400Z 08011KT 9999 FEW018 27/23 Q1015 NOSI